• Join FlightAware (Why Join?)
  • Login
  • US Flag 
06:35PM EDT


 

Airport Tracker/Info


-or-


 

Live Flight TrackerFlight Track Log ✈ PDT4314 ✈ 30-Aug-2013 ✈ KPHL - KBGM

Flight Track Log - Related Links

Times and Time Zones

All times are in EDT time to prevent confusion due to time zone crossing. See the PDT4314 flight status page for this flight to view local times or setup timezone preferences in your user account.

Time Position Orientation Groundspeed Altitude Reporting Facility
EDT Latitude Longitude Course Direction KTS MPH feet Rate Location/Type
06:19PM 39.9000 -75.2333 348° North 140 161 800  Level Philadelphia TRACON
06:20PM 39.9167 -75.2500 323° Northwest 141 162 1,700 1,020 Climbing Philadelphia TRACON
06:21PM 39.9667 -75.2667 346° North 168 193 2,500 960 Climbing Philadelphia TRACON
06:22PM 40.0953 -75.2833 North  Level FlightAware Approximate
06:22PM 40.0167 -75.2667 360° North 172 198 3,700  Level Philadelphia TRACON
06:23PM 40.1532 -75.2985 348° North  Level FlightAware Approximate
06:23PM 40.0667 -75.2833 346° North 174 200 4,000  Level Philadelphia TRACON
06:24PM 40.2110 -75.3149 348° North  Level FlightAware Approximate
06:24PM 40.1167 -75.3000 346° North 212 244 4,000  Level Philadelphia TRACON
06:25PM 40.1833 -75.3333 339° North 218 251 4,000  Level Philadelphia TRACON
06:27PM 40.2926 -75.3538 352° North  Level FlightAware Approximate
06:34PM 40.7010 -75.4461 349° North  Level FlightAware Approximate
06:35PM 40.7599 -75.4500 North  Level FlightAware Approximate
06:36PM 40.8191 -75.4500 North  Level FlightAware Approximate
06:37PM 40.8782 -75.4500 North  Level FlightAware Approximate
06:38PM 40.9374 -75.4500 North  Level FlightAware Approximate
06:39PM 40.9965 -75.4500 North  Level FlightAware Approximate
06:40PM 41.0556 -75.4517 357° North  Level FlightAware Approximate
06:41PM 41.1147 -75.4562 357° North  Level FlightAware Approximate
06:42PM 41.1737 -75.4608 357° North  Level FlightAware Approximate
06:43PM 41.2327 -75.4653 357° North  Level FlightAware Approximate
06:44PM 41.2919 -75.4667 North  Level FlightAware Approximate
06:45PM 41.3510 -75.4667 North  Level FlightAware Approximate
06:46PM 41.4101 -75.4667 North  Level FlightAware Approximate
06:47PM 41.4688 -75.4688 323° Northwest  Level FlightAware Approximate
06:48PM 41.5162 -75.5160 323° Northwest  Level FlightAware Approximate
06:49PM 41.5635 -75.5633 323° Northwest  Level FlightAware Approximate
06:50PM 41.6109 -75.6107 323° Northwest  Level FlightAware Approximate
06:51PM 41.6582 -75.6581 323° Northwest  Level FlightAware Approximate
06:52PM 41.7056 -75.7056 323° Northwest  Level FlightAware Approximate
06:53PM 41.7538 -75.7514 325° Northwest  Level FlightAware Approximate
06:54PM 41.8023 -75.7969 325° Northwest  Level FlightAware Approximate
06:55PM 41.8507 -75.8425 325° Northwest  Level FlightAware Approximate
06:56PM 41.8991 -75.8881 325° Northwest  Level FlightAware Approximate
06:57PM 41.9475 -75.9337 325° Northwest  Level FlightAware Approximate
06:58PM 41.9959 -75.9795 325° Northwest  Level FlightAware Approximate
06:59PM 42.0435 -76.0268 323° Northwest  Level FlightAware Approximate
07:00PM 42.0910 -76.0743 323° Northwest  Level FlightAware Approximate
07:01PM 42.1385 -76.1218 323° Northwest  Level FlightAware Approximate
07:02PM 42.1661 -76.0839 37° Northeast  Level FlightAware Approximate
07:03PM 42.1945 -76.0139 62° Northeast  Level FlightAware Approximate
07:04PM 42.2000 -75.9667 90° East  Level FlightAware Approximate
07:05PM 42.2086 -75.9797 90° East  Level Estimated
07:06PM 42.2086 -75.9797 90° East  Level Estimated
07:07PM 42.2086 -75.9797 90° East  Level Estimated
07:08PM 42.2086 -75.9797 90° East  Level Estimated
07:09PM 42.2086 -75.9797 90° East  Level Estimated
07:10PM 42.2086 -75.9797 90° East  Level Estimated
07:11PM 42.2086 -75.9797 90° East  Level Estimated